Aviation Digital Data Service (ADDS)

Output produced by METARs form (0948 UTC 27 May 2017)
found at http://www.aviationweather.gov/adds/metars/
 
METAR text: EHGG 270925Z AUTO 14008KT 090V230 9999 NCD 26/13 Q1018 NOSIG
Conditions at: EHGG (GRONINGEN/EELDE , NL) observed 0925 UTC 27 May 2017
Temperature: 26.0°C (79°F)
Dewpoint: 13.0°C (55°F) [RH = 45%]
Pressure (altimeter): 30.06 inches Hg (1018.0 mb)
Winds: from the SE (140 degrees) at 9 MPH (8 knots; 4.2 m/s)
Visibility: 6 or more miles (10+ km)
Ceiling: at least 12,000 feet AGL
Clouds: sky clear below 12,000 feet AGL
Weather: no significant weather observed at this time